sensor_id;sensor_type;location;lat;lon;timestamp;P1;durP1;ratioP1;P2;durP2;ratioP2
60078;SDS011;45951;45.824;8.824;2023-12-28T00:01:33;8.30;;;4.80;;
60078;SDS011;45951;45.824;8.824;2023-12-28T00:03:13;10.70;;;4.97;;
60078;SDS011;45951;45.824;8.824;2023-12-28T00:04:54;8.13;;;5.03;;
60078;SDS011;45951;45.824;8.824;2023-12-28T00:06:34;8.27;;;5.30;;
60078;SDS011;45951;45.824;8.824;2023-12-28T00:08:14;7.90;;;4.80;;
60078;SDS011;45951;45.824;8.824;2023-12-28T00:09:55;6.97;;;4.55;;
60078;SDS011;45951;45.824;8.824;2023-12-28T00:11:35;8.68;;;4.85;;
60078;SDS011;45951;45.824;8.824;2023-12-28T00:13:15;6.63;;;4.50;;
60078;SDS011;45951;45.824;8.824;2023-12-28T00:14:56;7.95;;;4.38;;
60078;SDS011;45951;45.824;8.824;2023-12-28T00:16:36;8.23;;;4.60;;
60078;SDS011;45951;45.824;8.824;2023-12-28T00:18:17;7.05;;;4.10;;
60078;SDS011;45951;45.824;8.824;2023-12-28T00:19:57;6.05;;;3.90;;
60078;SDS011;45951;45.824;8.824;2023-12-28T00:21:37;6.35;;;4.25;;
60078;SDS011;45951;45.824;8.824;2023-12-28T00:23:18;6.68;;;4.40;;
60078;SDS011;45951;45.824;8.824;2023-12-28T00:25:00;9.73;;;4.60;;
60078;SDS011;45951;45.824;8.824;2023-12-28T00:26:40;6.32;;;4.35;;
60078;SDS011;45951;45.824;8.824;2023-12-28T00:28:20;8.05;;;4.10;;
60078;SDS011;45951;45.824;8.824;2023-12-28T00:30:01;7.07;;;4.20;;
60078;SDS011;45951;45.824;8.824;2023-12-28T00:31:41;8.13;;;4.38;;
60078;SDS011;45951;45.824;8.824;2023-12-28T00:33:22;8.27;;;5.20;;
60078;SDS011;45951;45.824;8.824;2023-12-28T00:35:02;6.43;;;4.45;;
60078;SDS011;45951;45.824;8.824;2023-12-28T00:36:44;9.43;;;5.40;;
60078;SDS011;45951;45.824;8.824;2023-12-28T00:38:24;8.85;;;4.88;;
60078;SDS011;45951;45.824;8.824;2023-12-28T00:40:05;7.63;;;4.90;;
60078;SDS011;45951;45.824;8.824;2023-12-28T00:41:45;8.68;;;4.50;;
60078;SDS011;45951;45.824;8.824;2023-12-28T00:43:26;7.38;;;4.95;;
60078;SDS011;45951;45.824;8.824;2023-12-28T00:45:09;6.38;;;4.20;;
60078;SDS011;45951;45.824;8.824;2023-12-28T00:46:50;6.47;;;4.20;;
60078;SDS011;45951;45.824;8.824;2023-12-28T00:48:30;7.68;;;4.90;;
60078;SDS011;45951;45.824;8.824;2023-12-28T00:50:10;7.03;;;4.35;;
60078;SDS011;45951;45.824;8.824;2023-12-28T00:51:56;6.70;;;4.50;;
60078;SDS011;45951;45.824;8.824;2023-12-28T00:53:37;8.45;;;4.70;;
60078;SDS011;45951;45.824;8.824;2023-12-28T00:55:17;8.60;;;4.43;;
60078;SDS011;45951;45.824;8.824;2023-12-28T00:56:57;6.90;;;4.13;;
60078;SDS011;45951;45.824;8.824;2023-12-28T00:58:40;6.95;;;3.92;;
60078;SDS011;45951;45.824;8.824;2023-12-28T01:00:23;7.07;;;3.90;;
60078;SDS011;45951;45.824;8.824;2023-12-28T01:02:03;7.30;;;4.20;;
60078;SDS011;45951;45.824;8.824;2023-12-28T01:03:43;7.78;;;3.70;;
60078;SDS011;45951;45.824;8.824;2023-12-28T01:05:24;5.30;;;3.78;;
60078;SDS011;45951;45.824;8.824;2023-12-28T01:07:06;5.38;;;3.78;;
60078;SDS011;45951;45.824;8.824;2023-12-28T01:08:46;6.60;;;3.83;;
60078;SDS011;45951;45.824;8.824;2023-12-28T01:10:26;7.05;;;3.78;;
60078;SDS011;45951;45.824;8.824;2023-12-28T01:12:07;8.60;;;4.03;;
60078;SDS011;45951;45.824;8.824;2023-12-28T01:13:47;8.00;;;4.13;;
60078;SDS011;45951;45.824;8.824;2023-12-28T01:15:28;6.93;;;4.00;;
60078;SDS011;45951;45.824;8.824;2023-12-28T01:17:08;6.22;;;3.58;;
60078;SDS011;45951;45.824;8.824;2023-12-28T01:18:48;5.72;;;3.78;;
60078;SDS011;45951;45.824;8.824;2023-12-28T01:20:28;7.60;;;4.10;;
60078;SDS011;45951;45.824;8.824;2023-12-28T01:22:09;7.20;;;3.90;;
60078;SDS011;45951;45.824;8.824;2023-12-28T01:23:49;7.15;;;3.47;;
60078;SDS011;45951;45.824;8.824;2023-12-28T01:25:30;5.53;;;3.67;;
60078;SDS011;45951;45.824;8.824;2023-12-28T01:27:10;7.15;;;3.80;;
60078;SDS011;45951;45.824;8.824;2023-12-28T01:28:50;7.35;;;4.00;;
60078;SDS011;45951;45.824;8.824;2023-12-28T01:30:31;6.18;;;3.60;;
60078;SDS011;45951;45.824;8.824;2023-12-28T01:32:11;6.60;;;3.70;;
60078;SDS011;45951;45.824;8.824;2023-12-28T01:33:51;5.90;;;3.90;;
60078;SDS011;45951;45.824;8.824;2023-12-28T01:35:32;8.60;;;3.78;;
60078;SDS011;45951;45.824;8.824;2023-12-28T01:37:12;6.90;;;3.65;;
60078;SDS011;45951;45.824;8.824;2023-12-28T01:38:52;7.55;;;3.78;;
60078;SDS011;45951;45.824;8.824;2023-12-28T01:40:33;6.07;;;3.88;;
60078;SDS011;45951;45.824;8.824;2023-12-28T01:42:13;5.90;;;3.60;;
60078;SDS011;45951;45.824;8.824;2023-12-28T01:43:54;7.28;;;4.03;;
60078;SDS011;45951;45.824;8.824;2023-12-28T01:45:34;6.60;;;3.70;;
60078;SDS011;45951;45.824;8.824;2023-12-28T01:47:14;6.63;;;3.97;;
60078;SDS011;45951;45.824;8.824;2023-12-28T01:48:54;4.93;;;3.47;;
60078;SDS011;45951;45.824;8.824;2023-12-28T01:50:35;6.72;;;3.53;;
60078;SDS011;45951;45.824;8.824;2023-12-28T01:52:16;5.75;;;3.63;;
60078;SDS011;45951;45.824;8.824;2023-12-28T01:53:56;8.63;;;3.90;;
60078;SDS011;45951;45.824;8.824;2023-12-28T01:55:37;7.15;;;3.80;;
60078;SDS011;45951;45.824;8.824;2023-12-28T01:57:17;5.68;;;3.78;;
60078;SDS011;45951;45.824;8.824;2023-12-28T01:58:58;7.78;;;3.88;;
60078;SDS011;45951;45.824;8.824;2023-12-28T02:00:39;6.95;;;3.50;;
60078;SDS011;45951;45.824;8.824;2023-12-28T02:02:20;6.15;;;3.58;;
60078;SDS011;45951;45.824;8.824;2023-12-28T02:04:02;5.53;;;3.95;;
60078;SDS011;45951;45.824;8.824;2023-12-28T02:05:42;6.78;;;3.58;;
60078;SDS011;45951;45.824;8.824;2023-12-28T02:07:22;7.38;;;3.92;;
60078;SDS011;45951;45.824;8.824;2023-12-28T02:09:04;8.45;;;3.63;;
60078;SDS011;45951;45.824;8.824;2023-12-28T02:10:44;6.18;;;3.55;;
60078;SDS011;45951;45.824;8.824;2023-12-28T02:12:24;6.35;;;3.42;;
60078;SDS011;45951;45.824;8.824;2023-12-28T02:14:05;6.32;;;3.53;;
60078;SDS011;45951;45.824;8.824;2023-12-28T02:15:45;5.75;;;3.47;;
60078;SDS011;45951;45.824;8.824;2023-12-28T02:17:33;5.72;;;3.35;;
60078;SDS011;45951;45.824;8.824;2023-12-28T02:21:23;7.25;;;3.45;;
60078;SDS011;45951;45.824;8.824;2023-12-28T02:23:05;5.70;;;3.33;;
60078;SDS011;45951;45.824;8.824;2023-12-28T02:24:56;5.80;;;3.20;;
60078;SDS011;45951;45.824;8.824;2023-12-28T02:26:40;5.60;;;3.30;;
60078;SDS011;45951;45.824;8.824;2023-12-28T02:28:20;7.32;;;3.35;;
60078;SDS011;45951;45.824;8.824;2023-12-28T02:30:00;6.10;;;3.60;;
60078;SDS011;45951;45.824;8.824;2023-12-28T02:31:51;6.68;;;3.40;;
60078;SDS011;45951;45.824;8.824;2023-12-28T02:33:49;6.45;;;3.40;;
60078;SDS011;45951;45.824;8.824;2023-12-28T02:35:32;6.03;;;3.30;;
60078;SDS011;45951;45.824;8.824;2023-12-28T02:37:14;6.22;;;3.50;;
60078;SDS011;45951;45.824;8.824;2023-12-28T02:38:56;5.65;;;3.60;;
60078;SDS011;45951;45.824;8.824;2023-12-28T02:40:39;6.32;;;3.83;;
60078;SDS011;45951;45.824;8.824;2023-12-28T02:42:20;5.50;;;3.30;;
60078;SDS011;45951;45.824;8.824;2023-12-28T02:44:01;5.28;;;3.30;;
60078;SDS011;45951;45.824;8.824;2023-12-28T02:45:41;5.95;;;3.63;;
60078;SDS011;45951;45.824;8.824;2023-12-28T02:47:21;7.60;;;3.63;;
60078;SDS011;45951;45.824;8.824;2023-12-28T02:49:02;6.03;;;3.40;;
60078;SDS011;45951;45.824;8.824;2023-12-28T02:50:42;4.50;;;3.20;;
60078;SDS011;45951;45.824;8.824;2023-12-28T02:52:22;6.65;;;3.33;;
60078;SDS011;45951;45.824;8.824;2023-12-28T02:54:03;5.95;;;3.20;;
60078;SDS011;45951;45.824;8.824;2023-12-28T02:55:43;6.22;;;3.80;;
60078;SDS011;45951;45.824;8.824;2023-12-28T02:57:23;5.93;;;3.53;;
60078;SDS011;45951;45.824;8.824;2023-12-28T02:59:04;7.18;;;3.50;;
60078;SDS011;45951;45.824;8.824;2023-12-28T03:00:44;6.07;;;3.58;;
60078;SDS011;45951;45.824;8.824;2023-12-28T03:02:24;5.47;;;3.35;;
60078;SDS011;45951;45.824;8.824;2023-12-28T03:04:05;6.10;;;3.72;;
60078;SDS011;45951;45.824;8.824;2023-12-28T03:05:45;6.45;;;3.58;;
60078;SDS011;45951;45.824;8.824;2023-12-28T03:07:26;6.43;;;3.60;;
60078;SDS011;45951;45.824;8.824;2023-12-28T03:09:06;6.15;;;3.78;;
60078;SDS011;45951;45.824;8.824;2023-12-28T03:10:46;6.75;;;4.05;;
60078;SDS011;45951;45.824;8.824;2023-12-28T03:12:27;6.28;;;4.13;;
60078;SDS011;45951;45.824;8.824;2023-12-28T03:14:08;6.15;;;3.72;;
60078;SDS011;45951;45.824;8.824;2023-12-28T03:15:48;6.63;;;3.63;;
60078;SDS011;45951;45.824;8.824;2023-12-28T03:17:28;6.88;;;3.75;;
60078;SDS011;45951;45.824;8.824;2023-12-28T03:19:10;7.40;;;3.78;;
60078;SDS011;45951;45.824;8.824;2023-12-28T03:20:50;7.78;;;4.20;;
60078;SDS011;45951;45.824;8.824;2023-12-28T03:22:31;5.88;;;3.60;;
60078;SDS011;45951;45.824;8.824;2023-12-28T03:24:11;7.45;;;3.90;;
60078;SDS011;45951;45.824;8.824;2023-12-28T03:25:51;8.13;;;3.70;;
60078;SDS011;45951;45.824;8.824;2023-12-28T03:27:32;6.38;;;3.78;;
60078;SDS011;45951;45.824;8.824;2023-12-28T03:29:12;6.25;;;3.60;;
60078;SDS011;45951;45.824;8.824;2023-12-28T03:30:52;7.05;;;3.65;;
60078;SDS011;45951;45.824;8.824;2023-12-28T03:32:33;5.75;;;3.80;;
60078;SDS011;45951;45.824;8.824;2023-12-28T03:34:13;6.32;;;3.58;;
60078;SDS011;45951;45.824;8.824;2023-12-28T03:35:53;5.13;;;3.30;;
60078;SDS011;45951;45.824;8.824;2023-12-28T03:37:34;5.90;;;3.50;;
60078;SDS011;45951;45.824;8.824;2023-12-28T03:39:14;5.32;;;3.13;;
60078;SDS011;45951;45.824;8.824;2023-12-28T03:40:54;4.90;;;3.17;;
60078;SDS011;45951;45.824;8.824;2023-12-28T03:42:35;5.55;;;3.20;;
60078;SDS011;45951;45.824;8.824;2023-12-28T03:44:15;5.78;;;3.30;;
60078;SDS011;45951;45.824;8.824;2023-12-28T03:45:55;4.70;;;3.10;;
60078;SDS011;45951;45.824;8.824;2023-12-28T03:47:36;5.85;;;3.35;;
60078;SDS011;45951;45.824;8.824;2023-12-28T03:49:17;5.38;;;3.20;;
60078;SDS011;45951;45.824;8.824;2023-12-28T03:50:58;5.72;;;3.17;;
60078;SDS011;45951;45.824;8.824;2023-12-28T03:52:39;6.03;;;3.08;;
60078;SDS011;45951;45.824;8.824;2023-12-28T03:54:19;5.50;;;3.45;;
60078;SDS011;45951;45.824;8.824;2023-12-28T03:55:59;6.65;;;3.63;;
60078;SDS011;45951;45.824;8.824;2023-12-28T03:57:40;6.18;;;3.42;;
60078;SDS011;45951;45.824;8.824;2023-12-28T03:59:22;4.88;;;2.85;;
60078;SDS011;45951;45.824;8.824;2023-12-28T04:01:02;6.47;;;3.50;;
60078;SDS011;45951;45.824;8.824;2023-12-28T04:02:43;5.03;;;3.15;;
60078;SDS011;45951;45.824;8.824;2023-12-28T04:04:23;6.60;;;3.20;;
60078;SDS011;45951;45.824;8.824;2023-12-28T04:06:03;6.45;;;3.33;;
60078;SDS011;45951;45.824;8.824;2023-12-28T04:07:44;4.95;;;3.03;;
60078;SDS011;45951;45.824;8.824;2023-12-28T04:09:24;6.15;;;3.35;;
60078;SDS011;45951;45.824;8.824;2023-12-28T04:11:04;8.02;;;3.28;;
60078;SDS011;45951;45.824;8.824;2023-12-28T04:12:45;5.65;;;2.85;;
60078;SDS011;45951;45.824;8.824;2023-12-28T04:14:25;5.07;;;2.97;;
60078;SDS011;45951;45.824;8.824;2023-12-28T04:16:05;5.35;;;3.08;;
60078;SDS011;45951;45.824;8.824;2023-12-28T04:17:46;6.57;;;3.13;;
60078;SDS011;45951;45.824;8.824;2023-12-28T04:19:26;6.15;;;2.97;;
60078;SDS011;45951;45.824;8.824;2023-12-28T04:21:13;5.18;;;3.28;;
60078;SDS011;45951;45.824;8.824;2023-12-28T04:22:53;6.68;;;3.30;;
60078;SDS011;45951;45.824;8.824;2023-12-28T04:24:33;7.25;;;3.40;;
60078;SDS011;45951;45.824;8.824;2023-12-28T04:26:14;5.85;;;3.10;;
60078;SDS011;45951;45.824;8.824;2023-12-28T04:27:54;6.68;;;3.25;;
60078;SDS011;45951;45.824;8.824;2023-12-28T04:29:35;6.97;;;3.08;;
60078;SDS011;45951;45.824;8.824;2023-12-28T04:31:15;4.95;;;3.33;;
60078;SDS011;45951;45.824;8.824;2023-12-28T04:32:55;4.53;;;2.67;;
60078;SDS011;45951;45.824;8.824;2023-12-28T04:34:36;6.53;;;3.30;;
60078;SDS011;45951;45.824;8.824;2023-12-28T04:36:16;6.20;;;3.05;;
60078;SDS011;45951;45.824;8.824;2023-12-28T04:37:56;5.60;;;2.80;;
60078;SDS011;45951;45.824;8.824;2023-12-28T04:39:37;4.85;;;2.80;;
60078;SDS011;45951;45.824;8.824;2023-12-28T04:41:17;5.63;;;2.90;;
60078;SDS011;45951;45.824;8.824;2023-12-28T04:42:57;5.50;;;3.30;;
60078;SDS011;45951;45.824;8.824;2023-12-28T04:44:38;5.53;;;2.70;;
60078;SDS011;45951;45.824;8.824;2023-12-28T04:46:18;4.35;;;2.90;;
60078;SDS011;45951;45.824;8.824;2023-12-28T04:47:59;5.30;;;3.03;;
60078;SDS011;45951;45.824;8.824;2023-12-28T04:49:39;4.18;;;2.67;;
60078;SDS011;45951;45.824;8.824;2023-12-28T04:51:19;4.30;;;2.70;;
60078;SDS011;45951;45.824;8.824;2023-12-28T04:53:00;6.13;;;3.08;;
60078;SDS011;45951;45.824;8.824;2023-12-28T04:54:40;5.70;;;2.85;;
60078;SDS011;45951;45.824;8.824;2023-12-28T04:56:20;4.60;;;2.88;;
60078;SDS011;45951;45.824;8.824;2023-12-28T04:58:01;5.78;;;2.60;;
60078;SDS011;45951;45.824;8.824;2023-12-28T04:59:41;5.65;;;3.20;;
60078;SDS011;45951;45.824;8.824;2023-12-28T05:01:22;4.85;;;2.75;;
60078;SDS011;45951;45.824;8.824;2023-12-28T05:03:02;5.93;;;3.00;;
60078;SDS011;45951;45.824;8.824;2023-12-28T05:04:43;4.50;;;2.78;;
60078;SDS011;45951;45.824;8.824;2023-12-28T05:06:23;4.43;;;2.30;;
60078;SDS011;45951;45.824;8.824;2023-12-28T05:08:04;5.82;;;3.10;;
60078;SDS011;45951;45.824;8.824;2023-12-28T05:09:44;5.20;;;2.80;;
60078;SDS011;45951;45.824;8.824;2023-12-28T05:11:25;4.47;;;2.50;;
60078;SDS011;45951;45.824;8.824;2023-12-28T05:13:05;5.75;;;2.65;;
60078;SDS011;45951;45.824;8.824;2023-12-28T05:14:46;4.68;;;2.90;;
60078;SDS011;45951;45.824;8.824;2023-12-28T05:16:26;4.93;;;2.80;;
60078;SDS011;45951;45.824;8.824;2023-12-28T05:18:06;4.97;;;2.63;;
60078;SDS011;45951;45.824;8.824;2023-12-28T05:19:48;5.43;;;3.17;;
60078;SDS011;45951;45.824;8.824;2023-12-28T05:21:29;5.95;;;2.80;;
60078;SDS011;45951;45.824;8.824;2023-12-28T05:23:09;5.63;;;3.10;;
60078;SDS011;45951;45.824;8.824;2023-12-28T05:24:49;6.60;;;2.90;;
60078;SDS011;45951;45.824;8.824;2023-12-28T05:26:30;6.53;;;3.08;;
60078;SDS011;45951;45.824;8.824;2023-12-28T05:28:10;4.50;;;3.00;;
60078;SDS011;45951;45.824;8.824;2023-12-28T05:29:50;5.82;;;3.00;;
60078;SDS011;45951;45.824;8.824;2023-12-28T05:31:31;4.65;;;2.70;;
60078;SDS011;45951;45.824;8.824;2023-12-28T05:33:11;5.18;;;2.70;;
60078;SDS011;45951;45.824;8.824;2023-12-28T05:34:51;6.05;;;2.90;;
60078;SDS011;45951;45.824;8.824;2023-12-28T05:36:32;4.60;;;2.70;;
60078;SDS011;45951;45.824;8.824;2023-12-28T05:38:12;5.63;;;2.88;;
60078;SDS011;45951;45.824;8.824;2023-12-28T05:39:52;5.72;;;2.92;;
60078;SDS011;45951;45.824;8.824;2023-12-28T05:41:33;6.50;;;2.67;;
60078;SDS011;45951;45.824;8.824;2023-12-28T05:43:13;4.88;;;2.70;;
60078;SDS011;45951;45.824;8.824;2023-12-28T05:44:53;5.38;;;2.80;;
60078;SDS011;45951;45.824;8.824;2023-12-28T05:46:33;4.53;;;2.70;;
60078;SDS011;45951;45.824;8.824;2023-12-28T05:48:14;5.13;;;3.10;;
60078;SDS011;45951;45.824;8.824;2023-12-28T05:49:54;5.38;;;2.78;;
60078;SDS011;45951;45.824;8.824;2023-12-28T05:51:41;5.22;;;2.90;;
60078;SDS011;45951;45.824;8.824;2023-12-28T05:53:21;6.25;;;3.08;;
60078;SDS011;45951;45.824;8.824;2023-12-28T05:55:02;5.88;;;3.08;;
60078;SDS011;45951;45.824;8.824;2023-12-28T05:56:44;5.13;;;2.80;;
60078;SDS011;45951;45.824;8.824;2023-12-28T05:58:24;5.80;;;2.92;;
60078;SDS011;45951;45.824;8.824;2023-12-28T06:00:05;4.45;;;2.65;;
60078;SDS011;45951;45.824;8.824;2023-12-28T06:01:47;5.78;;;2.45;;
60078;SDS011;45951;45.824;8.824;2023-12-28T06:03:27;5.53;;;2.53;;
60078;SDS011;45951;45.824;8.824;2023-12-28T06:05:09;4.93;;;2.60;;
60078;SDS011;45951;45.824;8.824;2023-12-28T06:06:49;4.22;;;2.70;;
60078;SDS011;45951;45.824;8.824;2023-12-28T06:08:29;6.32;;;2.55;;
60078;SDS011;45951;45.824;8.824;2023-12-28T06:10:10;5.80;;;2.80;;
60078;SDS011;45951;45.824;8.824;2023-12-28T06:11:50;5.43;;;2.75;;
60078;SDS011;45951;45.824;8.824;2023-12-28T06:13:30;4.47;;;2.60;;
60078;SDS011;45951;45.824;8.824;2023-12-28T06:15:11;5.20;;;2.83;;
60078;SDS011;45951;45.824;8.824;2023-12-28T06:16:51;4.18;;;2.67;;
60078;SDS011;45951;45.824;8.824;2023-12-28T06:18:31;4.65;;;2.67;;
60078;SDS011;45951;45.824;8.824;2023-12-28T06:20:12;5.47;;;2.83;;
60078;SDS011;45951;45.824;8.824;2023-12-28T06:21:52;5.35;;;2.80;;
60078;SDS011;45951;45.824;8.824;2023-12-28T06:23:34;5.55;;;2.45;;
60078;SDS011;45951;45.824;8.824;2023-12-28T06:25:14;5.03;;;2.75;;
60078;SDS011;45951;45.824;8.824;2023-12-28T06:26:54;6.30;;;2.70;;
60078;SDS011;45951;45.824;8.824;2023-12-28T06:28:35;4.80;;;2.78;;
60078;SDS011;45951;45.824;8.824;2023-12-28T06:30:15;4.63;;;2.70;;
60078;SDS011;45951;45.824;8.824;2023-12-28T06:31:55;3.83;;;2.80;;
60078;SDS011;45951;45.824;8.824;2023-12-28T06:33:36;4.93;;;2.97;;
60078;SDS011;45951;45.824;8.824;2023-12-28T06:35:16;4.53;;;2.90;;
60078;SDS011;45951;45.824;8.824;2023-12-28T06:36:56;5.68;;;2.72;;
60078;SDS011;45951;45.824;8.824;2023-12-28T06:38:37;4.80;;;2.70;;
60078;SDS011;45951;45.824;8.824;2023-12-28T06:40:17;4.38;;;2.42;;
60078;SDS011;45951;45.824;8.824;2023-12-28T06:41:57;5.18;;;3.10;;
60078;SDS011;45951;45.824;8.824;2023-12-28T06:43:38;4.88;;;2.45;;
60078;SDS011;45951;45.824;8.824;2023-12-28T06:45:18;4.97;;;2.85;;
60078;SDS011;45951;45.824;8.824;2023-12-28T06:46:58;4.47;;;2.65;;
60078;SDS011;45951;45.824;8.824;2023-12-28T06:48:39;5.43;;;2.72;;
60078;SDS011;45951;45.824;8.824;2023-12-28T06:50:20;5.85;;;2.78;;
60078;SDS011;45951;45.824;8.824;2023-12-28T06:52:00;3.78;;;2.58;;
60078;SDS011;45951;45.824;8.824;2023-12-28T06:53:41;3.60;;;2.45;;
60078;SDS011;45951;45.824;8.824;2023-12-28T06:55:21;4.68;;;2.47;;
60078;SDS011;45951;45.824;8.824;2023-12-28T06:57:01;4.28;;;2.28;;
60078;SDS011;45951;45.824;8.824;2023-12-28T06:58:41;6.15;;;2.67;;
60078;SDS011;45951;45.824;8.824;2023-12-28T07:00:22;4.50;;;2.60;;
60078;SDS011;45951;45.824;8.824;2023-12-28T07:02:02;5.70;;;2.78;;
60078;SDS011;45951;45.824;8.824;2023-12-28T07:03:43;4.90;;;2.65;;
60078;SDS011;45951;45.824;8.824;2023-12-28T07:05:23;5.05;;;2.72;;
60078;SDS011;45951;45.824;8.824;2023-12-28T07:07:03;3.65;;;2.50;;
60078;SDS011;45951;45.824;8.824;2023-12-28T07:08:43;4.60;;;2.40;;
60078;SDS011;45951;45.824;8.824;2023-12-28T07:10:24;4.07;;;2.60;;
60078;SDS011;45951;45.824;8.824;2023-12-28T07:12:04;5.50;;;2.65;;
60078;SDS011;45951;45.824;8.824;2023-12-28T07:13:45;3.45;;;2.30;;
60078;SDS011;45951;45.824;8.824;2023-12-28T07:15:25;5.45;;;2.80;;
60078;SDS011;45951;45.824;8.824;2023-12-28T07:17:05;4.97;;;2.60;;
60078;SDS011;45951;45.824;8.824;2023-12-28T07:18:46;6.60;;;2.60;;
60078;SDS011;45951;45.824;8.824;2023-12-28T07:20:26;5.03;;;2.70;;
60078;SDS011;45951;45.824;8.824;2023-12-28T07:22:07;6.28;;;2.72;;
60078;SDS011;45951;45.824;8.824;2023-12-28T07:23:47;5.93;;;3.00;;
60078;SDS011;45951;45.824;8.824;2023-12-28T07:25:29;5.05;;;2.80;;
60078;SDS011;45951;45.824;8.824;2023-12-28T07:27:09;4.05;;;2.67;;
60078;SDS011;45951;45.824;8.824;2023-12-28T07:28:50;5.00;;;2.42;;
60078;SDS011;45951;45.824;8.824;2023-12-28T07:30:30;7.15;;;4.45;;
60078;SDS011;45951;45.824;8.824;2023-12-28T07:32:10;10.88;;;6.85;;
60078;SDS011;45951;45.824;8.824;2023-12-28T07:33:51;8.85;;;7.00;;
60078;SDS011;45951;45.824;8.824;2023-12-28T07:35:31;11.40;;;7.85;;
60078;SDS011;45951;45.824;8.824;2023-12-28T07:37:11;11.88;;;7.47;;
60078;SDS011;45951;45.824;8.824;2023-12-28T07:38:52;11.15;;;7.35;;
60078;SDS011;45951;45.824;8.824;2023-12-28T07:40:32;10.65;;;7.07;;
60078;SDS011;45951;45.824;8.824;2023-12-28T07:42:12;9.57;;;6.72;;
60078;SDS011;45951;45.824;8.824;2023-12-28T07:43:53;7.30;;;4.75;;
60078;SDS011;45951;45.824;8.824;2023-12-28T07:45:33;6.13;;;3.90;;
60078;SDS011;45951;45.824;8.824;2023-12-28T07:47:13;6.20;;;3.17;;
60078;SDS011;45951;45.824;8.824;2023-12-28T07:48:54;4.32;;;2.53;;
60078;SDS011;45951;45.824;8.824;2023-12-28T07:50:35;3.92;;;2.40;;
60078;SDS011;45951;45.824;8.824;2023-12-28T07:52:15;4.22;;;2.40;;
60078;SDS011;45951;45.824;8.824;2023-12-28T07:53:55;4.93;;;2.28;;
60078;SDS011;45951;45.824;8.824;2023-12-28T07:55:36;5.10;;;2.60;;
60078;SDS011;45951;45.824;8.824;2023-12-28T07:57:16;5.20;;;2.70;;
60078;SDS011;45951;45.824;8.824;2023-12-28T07:58:56;5.78;;;2.70;;
60078;SDS011;45951;45.824;8.824;2023-12-28T08:00:37;4.30;;;2.67;;
60078;SDS011;45951;45.824;8.824;2023-12-28T08:02:17;4.93;;;2.40;;
60078;SDS011;45951;45.824;8.824;2023-12-28T08:03:57;3.35;;;2.22;;
60078;SDS011;45951;45.824;8.824;2023-12-28T08:05:38;7.25;;;2.60;;
60078;SDS011;45951;45.824;8.824;2023-12-28T08:07:18;4.05;;;2.55;;
60078;SDS011;45951;45.824;8.824;2023-12-28T08:08:59;4.22;;;2.70;;
60078;SDS011;45951;45.824;8.824;2023-12-28T08:10:40;4.53;;;2.58;;
60078;SDS011;45951;45.824;8.824;2023-12-28T08:12:21;4.13;;;2.42;;
60078;SDS011;45951;45.824;8.824;2023-12-28T08:14:01;4.20;;;2.70;;
60078;SDS011;45951;45.824;8.824;2023-12-28T08:15:41;3.83;;;2.22;;
60078;SDS011;45951;45.824;8.824;2023-12-28T08:17:22;5.53;;;2.80;;
60078;SDS011;45951;45.824;8.824;2023-12-28T08:19:02;4.82;;;2.47;;
60078;SDS011;45951;45.824;8.824;2023-12-28T08:20:43;4.28;;;2.63;;
60078;SDS011;45951;45.824;8.824;2023-12-28T08:22:23;4.70;;;2.63;;
60078;SDS011;45951;45.824;8.824;2023-12-28T08:24:04;4.78;;;2.38;;
60078;SDS011;45951;45.824;8.824;2023-12-28T08:25:44;4.78;;;2.47;;
60078;SDS011;45951;45.824;8.824;2023-12-28T08:27:25;5.80;;;2.90;;
60078;SDS011;45951;45.824;8.824;2023-12-28T08:29:05;4.15;;;2.22;;
60078;SDS011;45951;45.824;8.824;2023-12-28T08:30:46;3.97;;;2.40;;
60078;SDS011;45951;45.824;8.824;2023-12-28T08:32:26;2.53;;;1.60;;
60078;SDS011;45951;45.824;8.824;2023-12-28T08:34:07;4.78;;;2.60;;
60078;SDS011;45951;45.824;8.824;2023-12-28T08:35:47;4.13;;;2.33;;
60078;SDS011;45951;45.824;8.824;2023-12-28T08:37:28;3.25;;;2.22;;
60078;SDS011;45951;45.824;8.824;2023-12-28T08:39:08;4.13;;;2.60;;
60078;SDS011;45951;45.824;8.824;2023-12-28T08:40:48;5.32;;;2.55;;
60078;SDS011;45951;45.824;8.824;2023-12-28T08:46:23;6.47;;;3.92;;
60078;SDS011;45951;45.824;8.824;2023-12-28T08:48:06;8.02;;;4.50;;
60078;SDS011;45951;45.824;8.824;2023-12-28T08:49:47;5.85;;;4.15;;
60078;SDS011;45951;45.824;8.824;2023-12-28T08:51:27;10.50;;;5.30;;
60078;SDS011;45951;45.824;8.824;2023-12-28T08:53:07;10.07;;;6.70;;
60078;SDS011;45951;45.824;8.824;2023-12-28T08:54:47;9.38;;;6.40;;
60078;SDS011;45951;45.824;8.824;2023-12-28T08:56:29;10.85;;;6.40;;
60078;SDS011;45951;45.824;8.824;2023-12-28T08:58:10;8.48;;;5.20;;
60078;SDS011;45951;45.824;8.824;2023-12-28T08:59:50;8.93;;;5.90;;
60078;SDS011;45951;45.824;8.824;2023-12-28T09:01:31;9.50;;;5.63;;
60078;SDS011;45951;45.824;8.824;2023-12-28T09:03:11;8.13;;;5.43;;
60078;SDS011;45951;45.824;8.824;2023-12-28T09:04:51;8.15;;;5.13;;
60078;SDS011;45951;45.824;8.824;2023-12-28T09:06:32;7.88;;;5.07;;
60078;SDS011;45951;45.824;8.824;2023-12-28T09:08:12;7.75;;;4.57;;
60078;SDS011;45951;45.824;8.824;2023-12-28T09:09:52;9.15;;;4.30;;
60078;SDS011;45951;45.824;8.824;2023-12-28T09:11:33;7.68;;;4.35;;
60078;SDS011;45951;45.824;8.824;2023-12-28T09:13:16;6.20;;;3.78;;
60078;SDS011;45951;45.824;8.824;2023-12-28T09:14:59;6.72;;;3.55;;
60078;SDS011;45951;45.824;8.824;2023-12-28T09:16:40;4.93;;;2.80;;
60078;SDS011;45951;45.824;8.824;2023-12-28T09:18:22;7.38;;;3.25;;
60078;SDS011;45951;45.824;8.824;2023-12-28T09:20:02;6.10;;;3.42;;
60078;SDS011;45951;45.824;8.824;2023-12-28T09:21:43;5.60;;;3.28;;
60078;SDS011;45951;45.824;8.824;2023-12-28T09:23:23;6.10;;;2.67;;
60078;SDS011;45951;45.824;8.824;2023-12-28T09:25:04;4.53;;;2.90;;
60078;SDS011;45951;45.824;8.824;2023-12-28T09:26:45;4.53;;;2.55;;
60078;SDS011;45951;45.824;8.824;2023-12-28T09:28:25;5.32;;;3.25;;
60078;SDS011;45951;45.824;8.824;2023-12-28T09:30:05;4.55;;;3.00;;
60078;SDS011;45951;45.824;8.824;2023-12-28T09:31:46;6.65;;;2.83;;
60078;SDS011;45951;45.824;8.824;2023-12-28T09:33:27;4.47;;;2.75;;
60078;SDS011;45951;45.824;8.824;2023-12-28T09:35:07;5.68;;;2.50;;
60078;SDS011;45951;45.824;8.824;2023-12-28T09:36:48;5.35;;;2.50;;
60078;SDS011;45951;45.824;8.824;2023-12-28T09:38:28;4.10;;;2.92;;
60078;SDS011;45951;45.824;8.824;2023-12-28T09:40:08;4.55;;;2.50;;
60078;SDS011;45951;45.824;8.824;2023-12-28T09:41:55;4.93;;;2.85;;
60078;SDS011;45951;45.824;8.824;2023-12-28T09:43:37;4.80;;;2.58;;
60078;SDS011;45951;45.824;8.824;2023-12-28T09:45:25;4.13;;;2.83;;
60078;SDS011;45951;45.824;8.824;2023-12-28T09:47:05;4.40;;;2.67;;
60078;SDS011;45951;45.824;8.824;2023-12-28T09:48:46;4.55;;;2.63;;
60078;SDS011;45951;45.824;8.824;2023-12-28T09:50:27;6.00;;;2.53;;
60078;SDS011;45951;45.824;8.824;2023-12-28T09:52:08;4.90;;;2.60;;
60078;SDS011;45951;45.824;8.824;2023-12-28T09:53:48;4.63;;;2.70;;
60078;SDS011;45951;45.824;8.824;2023-12-28T09:55:28;4.78;;;2.60;;
60078;SDS011;45951;45.824;8.824;2023-12-28T09:57:09;4.30;;;2.80;;
60078;SDS011;45951;45.824;8.824;2023-12-28T09:58:50;5.43;;;2.70;;
60078;SDS011;45951;45.824;8.824;2023-12-28T10:00:31;5.93;;;2.90;;
60078;SDS011;45951;45.824;8.824;2023-12-28T10:02:12;5.82;;;3.10;;
60078;SDS011;45951;45.824;8.824;2023-12-28T10:03:52;5.32;;;3.13;;
60078;SDS011;45951;45.824;8.824;2023-12-28T10:05:32;5.80;;;3.38;;
60078;SDS011;45951;45.824;8.824;2023-12-28T10:07:13;4.95;;;3.05;;
60078;SDS011;45951;45.824;8.824;2023-12-28T10:08:53;5.72;;;3.08;;
60078;SDS011;45951;45.824;8.824;2023-12-28T10:10:35;5.75;;;3.95;;
60078;SDS011;45951;45.824;8.824;2023-12-28T10:12:15;6.75;;;3.85;;
60078;SDS011;45951;45.824;8.824;2023-12-28T10:13:55;6.30;;;3.67;;